createdAt,value
2022-12-03T00:04:17.245Z,8.10
2022-12-03T00:09:25.133Z,7.47
2022-12-03T00:14:30.401Z,7.32
2022-12-03T00:19:35.782Z,6.30
2022-12-03T00:24:43.574Z,7.50
2022-12-03T00:29:48.718Z,8.10
2022-12-03T00:34:54.614Z,10.07
2022-12-03T00:40:02.569Z,11.52
2022-12-03T00:45:08.788Z,9.38
2022-12-03T00:50:14.808Z,9.05
2022-12-03T00:55:22.629Z,8.27
2022-12-03T01:00:28.218Z,8.90
2022-12-03T01:05:33.732Z,7.95
2022-12-03T01:10:41.735Z,7.05
2022-12-03T01:15:47.091Z,8.13
2022-12-03T01:20:52.385Z,6.90
2022-12-03T01:26:00.157Z,7.68
2022-12-03T01:31:17.675Z,10.20
2022-12-03T01:36:23.032Z,9.00
2022-12-03T01:41:31.346Z,9.52
2022-12-03T01:46:41.973Z,9.02
2022-12-03T01:51:47.263Z,7.68
2022-12-03T01:56:55.305Z,7.13
2022-12-03T02:02:00.708Z,7.10
2022-12-03T02:07:20.536Z,7.18
2022-12-03T02:12:31.756Z,7.95
2022-12-03T02:17:37.002Z,13.75
2022-12-03T02:22:49.898Z,9.48
2022-12-03T02:27:58.161Z,10.70
2022-12-03T02:33:03.522Z,8.75
2022-12-03T02:38:15.004Z,6.97
2022-12-03T02:43:24.010Z,6.63
2022-12-03T02:48:32.082Z,6.47
2022-12-03T02:53:39.294Z,7.88
2022-12-03T02:58:47.955Z,7.70
2022-12-03T03:03:54.207Z,6.95
2022-12-03T03:08:59.542Z,6.47
2022-12-03T03:14:07.718Z,6.18
2022-12-03T03:19:14.077Z,6.32
2022-12-03T03:24:19.593Z,8.02
2022-12-03T03:29:27.480Z,7.60
2022-12-03T03:34:33.914Z,9.38
2022-12-03T03:39:39.383Z,5.38
2022-12-03T03:44:48.406Z,6.75
2022-12-03T03:49:53.679Z,10.50
2022-12-03T03:54:58.816Z,8.15
2022-12-03T04:00:08.880Z,10.00
2022-12-03T04:05:18.799Z,7.13
2022-12-03T04:10:36.316Z,8.88
2022-12-03T04:15:44.149Z,9.20
2022-12-03T04:20:49.467Z,9.02
2022-12-03T04:26:18.495Z,7.30
2022-12-03T04:31:40.672Z,8.20
2022-12-03T04:36:45.919Z,6.78
2022-12-03T04:41:51.120Z,9.52
2022-12-03T04:46:59.027Z,7.80
2022-12-03T04:52:04.284Z,8.48
2022-12-03T04:57:09.880Z,8.32
2022-12-03T05:02:18.161Z,8.07
2022-12-03T05:07:23.494Z,10.38
2022-12-03T05:12:28.639Z,7.53
2022-12-03T05:17:36.479Z,8.68
2022-12-03T05:22:41.602Z,9.20
2022-12-03T05:27:46.673Z,10.98
2022-12-03T05:32:54.829Z,10.70
2022-12-03T05:37:59.938Z,9.27
2022-12-03T05:43:05.034Z,11.07
2022-12-03T05:48:13.938Z,10.48
2022-12-03T05:58:24.096Z,8.85
2022-12-03T06:03:32.020Z,8.75
2022-12-03T06:08:37.240Z,9.40
2022-12-03T06:13:42.480Z,12.20
2022-12-03T06:18:50.099Z,11.65
2022-12-03T06:23:55.313Z,12.18
2022-12-03T06:29:00.396Z,13.63
2022-12-03T06:34:08.078Z,14.43
2022-12-03T06:39:13.168Z,12.77
2022-12-03T06:44:18.281Z,9.63
2022-12-03T06:49:26.068Z,12.23
2022-12-03T06:54:31.180Z,11.80
2022-12-03T06:59:37.749Z,12.07
2022-12-03T07:04:46.602Z,9.45
2022-12-03T07:14:56.731Z,10.38
2022-12-03T07:20:04.962Z,9.45
2022-12-03T07:25:11.506Z,13.13
2022-12-03T07:30:18.493Z,10.68
2022-12-03T07:35:27.721Z,11.23
2022-12-03T07:40:32.824Z,12.02
2022-12-03T07:45:38.049Z,11.18
2022-12-03T07:50:45.836Z,10.70
2022-12-03T07:55:51.055Z,10.02
2022-12-03T08:00:56.360Z,10.35
2022-12-03T08:06:04.254Z,9.85
2022-12-03T08:11:09.675Z,8.70
2022-12-03T08:16:19.870Z,15.50
2022-12-03T08:21:27.769Z,9.18
2022-12-03T08:26:33.029Z,11.00
2022-12-03T08:31:38.383Z,10.68
2022-12-03T08:36:54.885Z,18.02
2022-12-03T08:42:28.603Z,10.15
2022-12-03T08:47:56.559Z,10.65
2022-12-03T09:50:52.668Z,10.23
2022-12-03T09:55:58.459Z,8.65
2022-12-03T10:01:03.822Z,8.35
2022-12-03T10:06:13.808Z,10.40
2022-12-03T10:11:19.571Z,7.38
2022-12-03T10:16:27.050Z,10.25
2022-12-03T10:21:38.194Z,8.82
2022-12-03T10:26:43.999Z,9.75
2022-12-03T10:31:53.654Z,10.43
2022-12-03T10:37:20.323Z,7.95
2022-12-03T10:42:25.932Z,8.02
2022-12-03T10:47:31.189Z,11.60
2022-12-03T10:52:39.125Z,7.07
2022-12-03T10:57:46.490Z,8.02
2022-12-03T11:02:56.658Z,10.60
2022-12-03T11:08:04.974Z,10.20
2022-12-03T11:13:31.913Z,12.15
2022-12-03T11:19:02.219Z,8.82
2022-12-03T11:24:24.162Z,10.40
2022-12-03T11:30:07.576Z,8.82
2022-12-03T11:35:15.516Z,10.07
2022-12-03T11:40:39.107Z,11.70
2022-12-03T11:45:44.899Z,10.73
2022-12-03T11:50:54.363Z,9.20
2022-12-03T11:56:09.529Z,7.97
2022-12-03T12:01:16.842Z,7.40
2022-12-03T12:06:23.399Z,11.95
2022-12-03T12:11:45.261Z,7.82
2022-12-03T12:16:58.637Z,10.50
2022-12-03T12:22:45.505Z,7.20
2022-12-03T12:27:55.461Z,9.32
2022-12-03T13:26:09.245Z,7.45
2022-12-03T15:35:27.004Z,11.90
2022-12-03T15:46:09.766Z,11.68
2022-12-03T15:51:54.399Z,17.40
2022-12-03T15:57:18.259Z,12.65
2022-12-03T16:02:34.267Z,11.80
2022-12-03T16:19:35.687Z,13.45
2022-12-03T16:25:32.417Z,14.48
2022-12-03T16:30:44.971Z,15.88
2022-12-03T16:35:56.038Z,13.32
2022-12-03T16:41:04.436Z,10.57
2022-12-03T16:46:26.599Z,17.30
2022-12-03T16:51:33.297Z,15.15
2022-12-03T17:02:55.445Z,13.23
2022-12-03T17:04:28.465Z,13.95
2022-12-03T17:08:00.944Z,10.95
2022-12-03T17:13:45.878Z,15.38
2022-12-03T17:19:16.603Z,20.38
2022-12-03T17:24:38.815Z,13.15
2022-12-03T17:36:14.291Z,10.68
2022-12-03T17:41:19.585Z,14.27
2022-12-03T17:46:27.849Z,12.27
2022-12-03T17:51:37.775Z,13.48
2022-12-03T17:56:45.426Z,15.43
2022-12-03T18:01:55.484Z,13.30
2022-12-03T18:07:02.283Z,15.57
2022-12-03T18:12:08.285Z,12.27
2022-12-03T18:22:52.425Z,15.27
2022-12-03T18:28:00.956Z,15.73
2022-12-03T18:33:19.297Z,15.50
2022-12-03T18:38:25.096Z,15.60
2022-12-03T18:49:29.101Z,16.15
2022-12-03T18:55:06.431Z,17.45
2022-12-03T19:00:28.352Z,18.50
2022-12-03T19:17:33.315Z,15.43
2022-12-03T19:22:38.664Z,17.15
2022-12-03T19:28:01.108Z,16.65
2022-12-03T19:33:54.439Z,17.52
2022-12-03T19:39:23.556Z,17.40
2022-12-03T20:03:01.977Z,12.88
2022-12-03T20:31:48.310Z,18.40
2022-12-03T20:37:07.973Z,16.73
2022-12-03T20:49:00.419Z,14.35
2022-12-03T21:07:02.629Z,20.33
2022-12-03T21:18:52.453Z,16.38
2022-12-03T21:58:56.687Z,13.73
2022-12-03T22:10:48.301Z,14.63
2022-12-03T22:16:34.928Z,14.73
2022-12-03T22:21:49.397Z,18.85
2022-12-03T22:27:14.812Z,17.83
2022-12-03T22:32:27.053Z,16.15
2022-12-03T22:44:01.441Z,14.07
2022-12-03T22:49:45.419Z,17.90
2022-12-03T22:54:53.472Z,17.63
2022-12-03T23:00:02.112Z,15.25
2022-12-03T23:12:25.466Z,12.25
2022-12-03T23:17:50.057Z,14.88
2022-12-03T23:29:07.789Z,11.23
2022-12-03T23:40:58.803Z,10.00
